createdAt,value
2019-03-29T00:01:28.390Z,22.98
2019-03-29T00:04:17.223Z,22.77
2019-03-29T00:07:06.132Z,22.55
2019-03-29T00:09:48.287Z,20.92
2019-03-29T00:12:37.122Z,27.37
2019-03-29T00:15:25.952Z,22.62
2019-03-29T00:18:14.816Z,27.35
2019-03-29T00:21:03.644Z,29.82
2019-03-29T00:24:05.961Z,26.93
2019-03-29T00:26:43.080Z,26.05
2019-03-29T00:29:31.908Z,24.80
2019-03-29T00:32:20.755Z,24.23
2019-03-29T00:35:09.650Z,21.95
2019-03-29T00:37:58.502Z,22.73
2019-03-29T00:40:47.330Z,23.12
2019-03-29T00:43:36.178Z,21.60
2019-03-29T00:46:25.086Z,23.40
2019-03-29T00:49:14.306Z,19.73
2019-03-29T00:52:04.538Z,21.05
2019-03-29T00:54:54.135Z,21.23
2019-03-29T00:57:43.939Z,20.25
2019-03-29T01:00:33.649Z,22.55
2019-03-29T01:03:23.422Z,21.40
2019-03-29T01:06:12.908Z,23.70
2019-03-29T01:08:55.953Z,24.05
2019-03-29T01:11:44.797Z,22.70
2019-03-29T01:14:33.632Z,20.05
2019-03-29T01:17:22.451Z,23.15
2019-03-29T01:23:05.481Z,20.85
2019-03-29T01:25:54.345Z,19.52
2019-03-29T01:28:43.165Z,22.05
2019-03-29T01:31:32.041Z,17.20
2019-03-29T01:34:20.869Z,17.75
2019-03-29T01:37:09.727Z,17.07
2019-03-29T01:39:58.559Z,18.17
2019-03-29T01:43:06.651Z,16.05
2019-03-29T01:45:55.672Z,17.82
2019-03-29T01:48:44.500Z,18.20
2019-03-29T01:51:33.381Z,13.68
2019-03-29T01:54:41.328Z,16.40
2019-03-29T01:57:30.277Z,15.70
2019-03-29T02:00:40.020Z,15.85
2019-03-29T02:06:36.783Z,15.53
2019-03-29T02:09:18.951Z,16.93
2019-03-29T02:12:07.797Z,14.65
2019-03-29T02:14:56.707Z,17.48
2019-03-29T02:17:45.535Z,15.13
2019-03-29T02:20:34.374Z,15.80
2019-03-29T02:23:23.216Z,14.45
2019-03-29T02:26:12.086Z,14.75
2019-03-29T02:29:00.906Z,16.45
2019-03-29T02:31:49.827Z,14.73
2019-03-29T02:34:38.665Z,15.13
2019-03-29T02:37:29.449Z,12.55
2019-03-29T02:43:25.832Z,13.13
2019-03-29T02:46:14.680Z,13.90
2019-03-29T02:49:03.506Z,14.18
2019-03-29T02:51:52.357Z,13.90
2019-03-29T02:54:41.186Z,12.45
2019-03-29T02:57:30.035Z,12.90
2019-03-29T03:00:19.024Z,13.10
2019-03-29T03:03:07.867Z,11.25
2019-03-29T03:05:56.742Z,13.28
2019-03-29T03:08:45.563Z,13.03
2019-03-29T03:11:27.563Z,13.13
2019-03-29T03:14:16.410Z,13.95
2019-03-29T03:17:05.250Z,12.40
2019-03-29T03:19:54.106Z,13.62
2019-03-29T03:22:43.151Z,11.73
2019-03-29T03:25:31.986Z,11.45
2019-03-29T03:28:20.857Z,11.60
2019-03-29T03:31:09.704Z,12.90
2019-03-29T03:33:58.555Z,10.40
2019-03-29T03:36:47.419Z,12.35
2019-03-29T03:39:36.252Z,11.60
2019-03-29T03:42:25.295Z,12.65
2019-03-29T03:45:14.173Z,11.20
2019-03-29T03:48:03.017Z,12.58
2019-03-29T03:51:10.933Z,11.18
2019-03-29T03:53:59.810Z,11.68
2019-03-29T03:57:09.509Z,12.60
2019-03-29T03:59:58.524Z,11.83
2019-03-29T04:02:47.432Z,11.28
2019-03-29T04:05:36.287Z,11.20
2019-03-29T04:11:46.965Z,11.85
2019-03-29T04:14:35.794Z,8.73
2019-03-29T04:17:24.632Z,10.90
2019-03-29T04:20:13.517Z,12.43
2019-03-29T04:23:02.370Z,12.13
2019-03-29T04:29:04.623Z,10.25
2019-03-29T04:31:49.614Z,10.60
2019-03-29T04:34:38.458Z,11.12
2019-03-29T04:37:27.311Z,11.45
2019-03-29T04:40:16.131Z,10.85
2019-03-29T04:43:04.994Z,11.22
2019-03-29T04:45:53.812Z,10.55
2019-03-29T04:48:42.664Z,10.70
2019-03-29T04:51:31.499Z,10.58
2019-03-29T04:54:20.327Z,12.28
2019-03-29T04:57:09.157Z,9.83
2019-03-29T04:59:57.982Z,11.55
2019-03-29T05:02:46.872Z,12.05
2019-03-29T05:05:35.758Z,11.97
2019-03-29T05:08:24.607Z,10.60
2019-03-29T05:11:04.565Z,9.73
2019-03-29T05:13:53.420Z,10.18
2019-03-29T05:16:42.301Z,11.38
2019-03-29T05:19:31.198Z,10.13
2019-03-29T05:22:19.991Z,10.08
2019-03-29T05:25:09.078Z,11.55
2019-03-29T05:27:57.915Z,10.30
2019-03-29T05:30:46.755Z,10.68
2019-03-29T05:36:43.360Z,10.38
2019-03-29T05:39:32.182Z,11.70
2019-03-29T05:42:21.046Z,10.85
2019-03-29T05:45:10.308Z,11.12
2019-03-29T05:47:59.148Z,12.88
2019-03-29T05:50:47.966Z,11.33
2019-03-29T05:53:36.818Z,11.55
2019-03-29T05:56:25.653Z,12.30
2019-03-29T05:59:14.495Z,12.33
2019-03-29T06:02:03.407Z,14.38
2019-03-29T06:04:52.255Z,12.28
2019-03-29T06:07:41.091Z,12.45
2019-03-29T06:10:29.936Z,14.55
2019-03-29T06:13:18.778Z,13.13
2019-03-29T06:16:38.327Z,15.68
2019-03-29T06:19:17.257Z,12.18
2019-03-29T06:22:06.111Z,12.03
2019-03-29T06:24:54.969Z,10.63
2019-03-29T06:27:43.805Z,10.35
2019-03-29T06:30:32.791Z,9.95
2019-03-29T06:33:40.713Z,10.95
2019-03-29T06:42:59.606Z,9.65
2019-03-29T06:45:48.564Z,9.50
2019-03-29T06:48:37.387Z,10.05
2019-03-29T06:51:26.212Z,9.88
2019-03-29T06:54:15.077Z,10.23
2019-03-29T06:57:03.931Z,9.40
2019-03-29T06:59:52.746Z,9.98
2019-03-29T07:02:41.626Z,10.13
2019-03-29T07:05:30.459Z,8.37
2019-03-29T07:08:19.317Z,8.80
2019-03-29T07:11:00.721Z,8.40
2019-03-29T07:13:57.352Z,7.00
2019-03-29T07:16:40.113Z,7.43
2019-03-29T07:19:28.984Z,7.50
2019-03-29T07:22:17.827Z,6.80
2019-03-29T07:28:20.860Z,6.60
2019-03-29T07:31:09.715Z,7.07
2019-03-29T07:33:58.543Z,7.70
2019-03-29T07:36:47.543Z,5.67
2019-03-29T07:39:36.396Z,7.00
2019-03-29T07:42:25.277Z,7.23
2019-03-29T07:45:14.173Z,8.67
2019-03-29T07:48:03.035Z,7.70
2019-03-29T07:50:51.883Z,7.10
2019-03-29T07:53:40.718Z,6.93
2019-03-29T07:56:29.569Z,8.53
2019-03-29T07:59:18.460Z,9.50
2019-03-29T08:02:07.464Z,9.40
2019-03-29T08:04:56.323Z,8.10
2019-03-29T08:07:45.219Z,8.40
2019-03-29T08:10:31.014Z,8.27
2019-03-29T08:13:18.102Z,8.10
2019-03-29T08:16:06.964Z,8.20
2019-03-29T08:18:55.787Z,7.17
2019-03-29T08:21:44.655Z,8.47
2019-03-29T08:24:33.638Z,8.43
2019-03-29T08:27:22.585Z,8.90
2019-03-29T08:33:39.794Z,9.17
2019-03-29T08:36:28.681Z,7.37
2019-03-29T08:39:27.952Z,8.47
2019-03-29T08:42:08.078Z,8.37
2019-03-29T08:44:56.918Z,8.43
2019-03-29T08:47:45.881Z,8.60
2019-03-29T08:50:34.719Z,7.77
2019-03-29T08:53:23.565Z,9.00
2019-03-29T08:56:12.492Z,8.00
2019-03-29T08:59:01.316Z,8.33
2019-03-29T09:01:50.220Z,9.07
2019-03-29T09:04:39.065Z,8.37
2019-03-29T09:07:28.192Z,8.77
2019-03-29T09:13:40.224Z,7.97
2019-03-29T09:16:29.126Z,9.30
2019-03-29T09:19:18.046Z,8.00
2019-03-29T09:22:06.866Z,8.10
2019-03-29T09:28:03.583Z,8.03
2019-03-29T09:30:52.422Z,7.97
2019-03-29T09:33:41.252Z,8.07
2019-03-29T09:36:30.161Z,7.83
2019-03-29T09:39:19.166Z,7.40
2019-03-29T09:42:09.765Z,7.60
2019-03-29T09:45:17.664Z,8.43
2019-03-29T09:48:06.520Z,7.87
2019-03-29T09:50:55.344Z,8.83
2019-03-29T09:53:44.211Z,7.30
2019-03-29T09:56:38.981Z,8.60
2019-03-29T09:59:23.610Z,8.07
2019-03-29T10:02:12.468Z,8.33
2019-03-29T10:05:01.303Z,7.60
2019-03-29T10:07:50.134Z,7.67
2019-03-29T10:10:38.999Z,8.20
2019-03-29T10:13:20.393Z,6.70
2019-03-29T10:16:09.239Z,5.90
2019-03-29T10:18:58.179Z,7.90
2019-03-29T10:21:47.064Z,6.80
2019-03-29T10:24:35.902Z,7.20
2019-03-29T10:27:24.730Z,6.30
2019-03-29T10:33:28.626Z,7.80
2019-03-29T10:36:17.465Z,5.67
2019-03-29T10:39:27.176Z,6.50
2019-03-29T10:42:16.028Z,5.23
2019-03-29T10:48:33.167Z,4.60
2019-03-29T10:51:22.086Z,5.10
2019-03-29T10:54:10.916Z,6.30
2019-03-29T10:56:59.740Z,4.83
2019-03-29T10:59:48.607Z,5.17
2019-03-29T11:02:37.477Z,5.30
2019-03-29T11:05:26.312Z,4.30
2019-03-29T11:08:15.183Z,5.43
2019-03-29T11:11:04.062Z,5.20
2019-03-29T11:13:46.322Z,4.90
2019-03-29T11:16:35.174Z,4.20
2019-03-29T11:19:24.033Z,4.50
2019-03-29T11:22:12.905Z,5.20
2019-03-29T11:25:01.737Z,5.53
2019-03-29T11:27:50.580Z,5.07
2019-03-29T11:30:58.507Z,3.93
2019-03-29T11:33:47.394Z,2.37
2019-03-29T11:36:55.315Z,3.70
2019-03-29T11:39:44.165Z,2.10
2019-03-29T11:42:33.011Z,2.77
2019-03-29T11:45:21.887Z,2.93
2019-03-29T11:48:10.777Z,3.67
2019-03-29T11:50:59.629Z,4.13
2019-03-29T11:53:51.052Z,3.00
2019-03-29T11:56:39.128Z,2.60
2019-03-29T11:59:46.976Z,3.00
2019-03-29T12:02:35.880Z,2.87
2019-03-29T12:05:24.738Z,2.67
2019-03-29T12:08:13.695Z,3.10
2019-03-29T12:11:02.534Z,2.20
2019-03-29T12:13:44.010Z,2.53
2019-03-29T12:16:32.851Z,2.40
2019-03-29T12:19:21.698Z,3.10
2019-03-29T12:22:10.513Z,2.63
2019-03-29T12:24:59.405Z,3.20
2019-03-29T12:27:48.233Z,3.67
2019-03-29T12:33:51.991Z,2.73
2019-03-29T12:36:40.859Z,2.43
2019-03-29T12:39:29.745Z,2.27
2019-03-29T12:42:18.616Z,3.23
2019-03-29T12:51:49.143Z,3.60
2019-03-29T12:54:38.078Z,3.30
2019-03-29T12:57:26.947Z,2.60
2019-03-29T13:00:15.944Z,3.17
2019-03-29T13:03:05.011Z,3.60
2019-03-29T13:05:53.886Z,3.10
2019-03-29T13:09:01.880Z,3.30
2019-03-29T13:12:09.805Z,3.30
2019-03-29T13:14:58.668Z,3.13
2019-03-29T13:20:56.902Z,2.80
2019-03-29T13:23:45.805Z,2.37
2019-03-29T13:26:34.654Z,2.57
2019-03-29T13:29:23.483Z,2.90
2019-03-29T13:32:12.335Z,2.57
2019-03-29T13:35:20.266Z,2.77
2019-03-29T13:38:28.296Z,3.23
2019-03-29T13:41:36.291Z,2.60
2019-03-29T13:44:44.556Z,2.67
2019-03-29T13:47:33.395Z,3.80
2019-03-29T13:50:34.160Z,3.00
2019-03-29T13:53:12.812Z,3.30
2019-03-29T13:56:01.694Z,2.67
2019-03-29T13:58:50.519Z,3.07
2019-03-29T14:01:39.355Z,2.87
2019-03-29T14:04:28.192Z,3.10
2019-03-29T14:07:36.141Z,3.50
2019-03-29T14:10:25.012Z,3.00
2019-03-29T14:13:07.043Z,4.00
2019-03-29T14:15:55.963Z,2.63
2019-03-29T14:18:44.861Z,3.10
2019-03-29T14:21:52.781Z,2.73
2019-03-29T14:24:41.759Z,2.60
2019-03-29T14:27:30.670Z,2.50
2019-03-29T14:30:19.575Z,2.23
2019-03-29T14:33:08.413Z,2.40
2019-03-29T14:35:57.284Z,2.27
2019-03-29T14:38:46.124Z,3.03
2019-03-29T14:41:35.015Z,2.27
2019-03-29T14:44:23.873Z,1.97
2019-03-29T14:47:12.698Z,1.67
2019-03-29T14:50:01.515Z,2.00
2019-03-29T14:52:50.387Z,2.20
2019-03-29T14:55:39.279Z,2.47
2019-03-29T14:58:28.151Z,2.23
2019-03-29T15:01:16.970Z,2.23
2019-03-29T15:04:24.940Z,2.67
2019-03-29T15:07:13.834Z,2.37
2019-03-29T15:13:10.462Z,2.20
2019-03-29T15:15:59.302Z,2.17
2019-03-29T15:18:48.145Z,2.10
2019-03-29T15:21:36.994Z,2.60
2019-03-29T15:24:25.837Z,2.23
2019-03-29T15:27:14.691Z,2.00
2019-03-29T15:33:31.834Z,2.30
2019-03-29T15:36:20.657Z,2.40
2019-03-29T15:39:09.503Z,1.87
2019-03-29T15:41:58.327Z,2.00
2019-03-29T15:44:47.291Z,1.80
2019-03-29T15:51:04.526Z,1.77
2019-03-29T15:53:53.109Z,2.00
2019-03-29T15:56:42.272Z,1.97
2019-03-29T15:59:31.087Z,1.77
2019-03-29T16:02:20.011Z,1.93
2019-03-29T16:04:49.545Z,2.07
2019-03-29T16:07:38.795Z,2.27
2019-03-29T16:10:28.041Z,2.00
2019-03-29T16:13:16.894Z,2.03
2019-03-29T16:15:58.275Z,2.10
2019-03-29T16:18:47.226Z,1.70
2019-03-29T16:21:36.056Z,1.90
2019-03-29T16:24:24.966Z,1.70
2019-03-29T16:27:13.871Z,2.17
2019-03-29T16:30:02.782Z,2.77
2019-03-29T16:32:51.697Z,2.37
2019-03-29T16:35:40.524Z,2.40
2019-03-29T16:38:29.527Z,2.10
2019-03-29T16:41:18.380Z,2.60
2019-03-29T16:44:07.280Z,2.63
2019-03-29T16:46:56.174Z,2.57
2019-03-29T16:49:45.100Z,1.80
2019-03-29T16:52:33.997Z,2.20
2019-03-29T16:55:41.881Z,2.10
2019-03-29T16:58:30.750Z,2.10
2019-03-29T17:01:19.559Z,2.43
2019-03-29T17:04:08.438Z,2.47
2019-03-29T17:06:57.252Z,2.20
2019-03-29T17:09:46.101Z,2.57
2019-03-29T17:12:42.754Z,2.13
2019-03-29T17:15:24.462Z,2.63
2019-03-29T17:18:13.367Z,1.90
2019-03-29T17:21:02.347Z,1.83
2019-03-29T17:23:53.113Z,2.00
2019-03-29T17:26:43.332Z,2.07
2019-03-29T17:29:32.214Z,2.27
2019-03-29T17:32:21.690Z,2.13
2019-03-29T17:35:11.691Z,2.80
2019-03-29T17:38:00.549Z,2.60
2019-03-29T17:40:49.451Z,2.30
2019-03-29T17:43:38.305Z,2.07
2019-03-29T17:46:26.923Z,2.20
2019-03-29T17:49:15.791Z,2.50
2019-03-29T17:52:04.622Z,2.27
2019-03-29T17:54:53.495Z,2.30
2019-03-29T17:57:42.370Z,2.40
2019-03-29T18:00:31.345Z,2.70
2019-03-29T18:03:20.226Z,2.60
2019-03-29T18:06:09.063Z,2.77
2019-03-29T18:08:57.912Z,3.20
2019-03-29T18:11:46.775Z,3.07
2019-03-29T18:14:28.561Z,3.57
2019-03-29T18:17:17.395Z,3.10
2019-03-29T18:20:27.135Z,2.57
2019-03-29T18:23:15.992Z,3.20
2019-03-29T18:26:04.882Z,2.67
2019-03-29T18:28:37.772Z,2.73
2019-03-29T18:31:25.069Z,3.00
2019-03-29T18:34:13.932Z,2.40
2019-03-29T18:37:02.930Z,3.20
2019-03-29T18:39:54.837Z,2.43
2019-03-29T18:42:42.430Z,2.17
2019-03-29T18:45:31.353Z,2.97
2019-03-29T18:48:20.225Z,3.20
2019-03-29T18:51:09.040Z,2.30
2019-03-29T18:53:57.909Z,2.90
2019-03-29T18:56:47.004Z,2.73
2019-03-29T18:59:37.338Z,3.50
2019-03-29T19:05:34.179Z,3.23
2019-03-29T19:08:23.041Z,3.40
2019-03-29T19:11:30.990Z,2.60
2019-03-29T19:14:19.957Z,4.13
2019-03-29T19:17:08.826Z,4.17
2019-03-29T19:19:57.645Z,4.10
2019-03-29T19:22:46.639Z,4.40
2019-03-29T19:25:35.491Z,3.50
2019-03-29T19:28:24.436Z,3.47
2019-03-29T19:31:13.282Z,3.30
2019-03-29T19:34:02.112Z,2.80
2019-03-29T19:36:50.967Z,2.80
2019-03-29T19:39:39.798Z,3.57
2019-03-29T19:42:28.663Z,3.87
2019-03-29T19:48:45.985Z,3.30
2019-03-29T19:51:53.948Z,3.20
2019-03-29T19:54:43.149Z,3.63
2019-03-29T19:57:32.044Z,3.30
2019-03-29T20:00:41.766Z,3.63
2019-03-29T20:03:30.682Z,3.13
2019-03-29T20:06:19.561Z,3.40
2019-03-29T20:12:25.231Z,2.97
2019-03-29T20:15:07.583Z,2.93
2019-03-29T20:18:15.522Z,2.93
2019-03-29T20:21:04.351Z,2.60
2019-03-29T20:23:53.216Z,3.20
2019-03-29T20:27:01.101Z,3.30
2019-03-29T20:29:49.956Z,3.50
2019-03-29T20:32:38.781Z,2.70
2019-03-29T20:35:27.710Z,3.43
2019-03-29T20:38:16.673Z,3.07
2019-03-29T20:41:05.515Z,3.60
2019-03-29T20:43:54.350Z,4.03
2019-03-29T20:46:43.227Z,3.60
2019-03-29T20:49:32.050Z,2.70
2019-03-29T20:52:20.916Z,3.60
2019-03-29T20:55:09.806Z,4.00
2019-03-29T20:57:58.742Z,3.40
2019-03-29T21:00:47.593Z,3.83
2019-03-29T21:03:36.450Z,4.10
2019-03-29T21:06:25.300Z,3.47
2019-03-29T21:09:14.160Z,3.00
2019-03-29T21:12:03.033Z,3.43
2019-03-29T21:14:44.452Z,3.30
2019-03-29T21:17:33.320Z,3.97
2019-03-29T21:20:41.307Z,4.27
2019-03-29T21:23:30.138Z,4.13
2019-03-29T21:26:19.018Z,3.95
2019-03-29T21:29:26.971Z,6.87
2019-03-29T21:32:15.822Z,4.90
2019-03-29T21:38:19.999Z,4.40
2019-03-29T21:41:08.931Z,5.20
2019-03-29T21:43:57.785Z,5.08
2019-03-29T21:46:46.694Z,4.10
2019-03-29T21:49:35.533Z,5.10
2019-03-29T21:52:24.369Z,5.40
2019-03-29T21:58:21.061Z,4.58
2019-03-29T22:01:09.936Z,4.15
2019-03-29T22:03:58.832Z,3.92
2019-03-29T22:06:47.683Z,3.80
2019-03-29T22:12:30.562Z,4.60
2019-03-29T22:15:19.480Z,3.95
2019-03-29T22:18:01.682Z,4.35
2019-03-29T22:20:50.527Z,7.47
2019-03-29T22:23:39.432Z,5.72
2019-03-29T22:26:28.313Z,5.95
2019-03-29T22:29:17.184Z,5.33
2019-03-29T22:32:06.009Z,5.17
2019-03-29T22:34:54.863Z,6.22
2019-03-29T22:37:43.713Z,4.50
2019-03-29T22:40:32.532Z,4.25
2019-03-29T22:43:21.408Z,4.53
2019-03-29T22:46:10.246Z,4.53
2019-03-29T22:48:59.084Z,3.90
2019-03-29T22:51:47.908Z,3.85
2019-03-29T22:54:36.757Z,4.60
2019-03-29T22:57:25.559Z,3.75
2019-03-29T23:03:30.842Z,4.17
2019-03-29T23:06:19.748Z,4.03
2019-03-29T23:09:11.655Z,4.03
2019-03-29T23:11:59.300Z,3.87
2019-03-29T23:14:48.151Z,5.37
2019-03-29T23:17:29.771Z,4.42
2019-03-29T23:20:18.649Z,4.55
2019-03-29T23:23:07.473Z,4.10
2019-03-29T23:25:56.315Z,4.62
2019-03-29T23:28:45.138Z,4.55
2019-03-29T23:31:33.982Z,3.40
2019-03-29T23:34:22.811Z,3.83
2019-03-29T23:37:11.641Z,4.90
2019-03-29T23:40:19.531Z,3.40
2019-03-29T23:43:08.367Z,4.15
2019-03-29T23:45:57.219Z,3.90
2019-03-29T23:48:46.046Z,4.15
2019-03-29T23:51:34.906Z,4.40
2019-03-29T23:54:23.711Z,4.65
2019-03-29T23:57:12.582Z,4.45
